Portada
METAR-TAF:

METAR-TAF

Aeroports :

Oswego County Airport

Fulton, Nova York, Estats Units d'Amèrica

latitud: 43-21-03N, longitud: 076-23-17W, altitud: 145 m

Observació

L'informe es va fer fa 39 minuts, a les 10:54 UTC
Vent calma
Temperatura 7°C
Humitat 93%
Pressió 1025 hPa
Visibilitat: 16.1 km
Núvols disperses a una alçada de 11000 ft

METAR: KFZY 221054Z AUTO 00000KT 10SM SCT110 07/06 A3026 RMK AO2 SLP247 T00720061

Hora: 07:33 (11:33 UTC)


TAF: manca

Observacions i pronòstics meteorològics de més de 4000 aeroports (METAR i TAF).

Les estacions disponibles són els punts grocs i vermells al mapa.

Posi el ratolí al punt desitjat per veure el nom de l'estació.

Feu clic per veure les observacions i els pronòstics meteorològics.

Per canviar el mapa: feu clic els botons verds amb una creu de color negre per apropar; al botó verd amb un guió per allunyar la imatge; o en les fletxes verdes per a mapes adjacents.


METAR-TAF: